^^

Nearby METAR Reports

 

KBJC - Broomfield, Colorado
Distance from station: ESE 4mi, 6km
Updated: 06/19/2018 10:53pm
Overcast
Overcast
 Wind from E
Wind: E 6 mph , 9 km/h
Temperature: 61°F , 16°C
Dew Point: 50°F , 10°C
Humidity: 68%
Barometer: 1022 hPa
Clouds: Overcast
Visibility: 10 miles , 16 km
Cloud details: Overcast 6500 ft
2018/06/20 04:53 KBJC 200453Z AUTO 08005KT 10SM OVC065 16/10 A3018 RMK AO2
KBDU - Boulder, Colorado
Distance from station: NNW 8mi, 13km
Updated: 06/19/2018 10:54pm
Mostly cloudy
Mostly cloudy
 Wind from WNW
Wind: WNW 3 mph , 6 km/h
Temperature: 61°F , 16°C
Dew Point: 46°F , 8°C
Humidity: 59%
Barometer: 1021 hPa
Clouds: Mostly cloudy
Visibility: 10 miles , 16 km
Cloud details: Mostly cloudy 7500 ft
2018/06/20 04:54 KBDU 200454Z AUTO 29003KT 10SM BKN075 16/08 A3015 RMK AO2
 
KEIK - Erie, Colorado
Distance from station: NE 8mi, 14km
Updated: 06/19/2018 10:54pm
Overcast
Overcast
 Wind from E
Wind: E 5 mph , 7 km/h
Temperature: 61°F , 16°C
Dew Point: 52°F , 11°C
Humidity: 72%
Barometer: 1022.7 hPa
Clouds: Overcast
Visibility: 10 miles , 16 km
Cloud details: Mostly cloudy 7000 ft
Overcast 9000 ft
2018/06/20 04:54 KEIK 200454Z AUTO 09004KT 10SM BKN070 OVC090 16/11 A3020 RMK AO2 T01580107
KLMO - Longmont, Colorado
Distance from station: N 17mi, 27km
Updated: 06/19/2018 10:55pm
Partly cloudy
Partly cloudy
 Wind from calm
Wind: Calm
Temperature: 61°F , 16°C
Dew Point: 52°F , 11°C
Humidity: 72%
Barometer: 1021.3 hPa
Clouds: Partly cloudy
Visibility: 7 miles , 11 km
Cloud details: Partly cloudy 8000 ft
Partly cloudy 11000 ft
2018/06/20 04:55 KLMO 200455Z AUTO 00000KT 7SM SCT080 SCT110 16/11 A3016 RMK AO2 T01610114
 
KDEN - Denver (DIA), Colorado
Distance from station: E 27mi, 44km
Updated: 06/19/2018 10:53pm
Overcast
Overcast
 Wind from N
Wind: N 5 mph , 7 km/h
Temperature: 57°F , 14°C
Dew Point: 54°F , 12°C
Humidity: 88%
Barometer: 1022 hPa
Clouds: Overcast
Visibility: 10 miles , 16 km
Cloud details: Few Clouds 900 ft
Mostly cloudy 2100 ft
Overcast 7500 ft
2018/06/20 04:53 KDEN 200453Z 01004KT 10SM FEW009 BKN021 OVC075 14/12 A3018 RMK AO2 SLP154 T01440122
KFNL - Ft Collins, Colorado
Distance from station: N 37mi, 59km
Updated: 06/19/2018 10:56pm
Partly cloudy
Partly cloudy
 Wind from E
Wind: E 6 mph , 9 km/h
Temperature: 57°F , 14°C
Dew Point: 54°F , 12°C
Humidity: 88%
Barometer: 1020.7 hPa
Clouds: Partly cloudy
Visibility: 10 miles , 16 km
Cloud details: Few Clouds 9000 ft
Partly cloudy 11000 ft
2018/06/20 04:56 KFNL 200456Z AUTO 10005KT 10SM FEW090 SCT110 14/12 A3014 RMK AO2 TSB02E17RAB20E42 SLP160 P0000 T01440122
 
KGXY - Greeley, Colorado
Distance from station: NE 44mi, 71km
Updated: 06/19/2018 11:03pm
Few Clouds
Few Clouds
 Wind from NE
Wind: NE 17 mph , 28 km/h, Gust: 29 mph , 46 km/h
Temperature: 57°F , 14°C
Dew Point: 55°F , 13°C
Humidity: 94%
Barometer: 1019.3 hPa
Clouds: Few Clouds
Visibility: 10 miles , 16 km
Cloud details: Few Clouds 8000 ft
2018/06/20 05:03 KGXY 200503Z AUTO 04015G25KT 10SM FEW080 14/13 A3010 RMK AO2 WSHFT 0443 RAE01 P0000
KSBS - Steamboat Springs, Colorado
Distance from station: N 99mi, 159km
Updated: 06/19/2018 10:55pm
Clear
Clear
 Wind from calm
Wind: Calm
Temperature: 55°F , 13°C
Dew Point: 39°F , 4°C
Humidity: 55%
Barometer: 1023.7 hPa
Clouds: Clear
Visibility: 10 miles , 16 km
2018/06/20 04:55 KSBS 200455Z AUTO 00000KT 10SM CLR 13/04 A3023 RMK AO1 T01290040
 
KEGE - Eagle Co. Region, Colorado
Distance from station: SW 96mi, 154km
Updated: 06/19/2018 10:56pm
Clear
Clear
 Wind from calm
Wind: Calm
Temperature: 63°F , 17°C
Dew Point: 36°F , 2°C
Humidity: 37%
Barometer: 1022.7 hPa
Clouds: Clear
Visibility: 10 miles , 16 km
2018/06/20 04:56 KEGE 200456Z AUTO 00000KT 10SM CLR 17/02 A3020 RMK AO2 SLP163 T01670022
KGJT - Grand Junction, Colorado
Distance from station: WSW 187mi, 302km
Updated: 06/19/2018 10:53pm
Clear
Clear
 Wind from NNW
Wind: NNW 5 mph , 7 km/h
Temperature: 70°F , 21°C
Dew Point: 34°F , 1°C
Humidity: 27%
Barometer: 1017.6 hPa
Clouds: Clear
Visibility: 10 miles , 16 km
2018/06/20 04:53 KGJT 200453Z AUTO 33004KT 10SM CLR 21/01 A3005 RMK AO2 SLP105 T02060011
 
KDRO - Durango, Colorado
Distance from station: SW 238mi, 383km
Updated: 06/19/2018 10:53pm
Clear
Clear
 Wind from calm
Wind: Calm
Temperature: 63°F , 17°C
Dew Point: 25°F , -4°C
Humidity: 24%
Barometer: 1021 hPa
Clouds: Clear
Visibility: 10 miles , 16 km
2018/06/20 04:53 KDRO 200453Z AUTO 00000KT 10SM CLR 17/M04 A3015 RMK AO2 SLP123 T01721039
KCYS - Cheyenne, Wyoming
Distance from station: N 86mi, 139km
Updated: 06/19/2018 10:53pm
Few Clouds
Few Clouds
 Wind from calm
Wind: Calm
Temperature: 48°F , 9°C
Dew Point: 48°F , 9°C
Humidity: 100%
Barometer: 1022.4 hPa
Clouds: Few Clouds
Visibility: 10 miles , 16 km
Cloud details: Few Clouds 8000 ft
2018/06/20 04:53 KCYS 200453Z AUTO 00000KT 10SM FEW080 09/09 A3019 RMK AO2 SLP164 T00940089
 
KCOS - Colorado Springs, Colorado
Distance from station: S 74mi, 120km
Updated: 06/19/2018 10:54pm
Partly cloudy
Partly cloudy
 Wind from NNW
Wind: NNW 16 mph , 26 km/h, Gust: 33 mph , 54 km/h
Temperature: 57°F , 14°C
Dew Point: 48°F , 9°C
Humidity: 72%
Barometer: 1022 hPa
Clouds: Partly cloudy
Visibility: 10 miles , 16 km
Cloud details: Partly cloudy 2500 ft
Partly cloudy 12000 ft
2018/06/20 04:54 KCOS 200454Z 33014G29KT 10SM SCT025 SCT120 14/09 A3018 RMK AO2 PK WND 34035/0356 SLP148 FRQ LTGICCCCG DSNT SE-S CB DSNT SE-S MOV E T01440094 $
KPUB - Pueblo, Colorado
Distance from station: S 119mi, 192km
Updated: 06/19/2018 11:04pm
Overcast
Overcast
 Wind from NE
Wind: NE 18 mph , 30 km/h, Gust: 28 mph , 44 km/h
Temperature: 64°F , 18°C
Dew Point: 55°F , 13°C
Humidity: 73%
Barometer: 1019.6 hPa
Clouds: Overcast
Visibility: 10 miles , 16 km
Cloud details: Overcast 8000 ft
2018/06/20 05:04 KPUB 200504Z 04016G24KT 10SM OVC080 18/13 A3011 RMK AO2 LTG DSNT N AND NE T01830133
 
KLAA - Lamar, Colorado
Distance from station: ESE 184mi, 297km
Updated: 06/19/2018 10:53pm
Light thunderstorm, Rain, Mostly cloudy
Light thunderstorm, Rain, Mostly cloudy
 Wind from E
Wind: E 15 mph , 24 km/h, Gust: 23 mph , 37 km/h
Temperature: 59°F , 15°C
Dew Point: 55°F , 13°C
Humidity: 88%
Barometer: 1016.6 hPa
Summary: Light thunderstorm, Rain
Clouds: Mostly cloudy
Visibility: 10 miles , 16 km
Cloud details: Few Clouds 700 ft
Few Clouds 4600 ft
Mostly cloudy 11000 ft
2018/06/20 04:53 KLAA 200453Z AUTO 10013G20KT 10SM -TSRA FEW007 FEW046 BKN110 15/13 A3002 RMK AO2 PK WND 11028/0410 WSHFT 0430 LTG DSNT ALQDS RAB0359 SLP121 P0036 T01500133 $